Time;durP1;ratioP1;P1;durP2;ratioP2;P2;SDS_P1;SDS_P2;PMS_P1;PMS_P2;Temp;Humidity;BMP_temperature;BMP_pressure;BME280_temperature;BME280_humidity;BME280_pressure;Samples;Min_cycle;Max_cycle;Signal;HPM_P1;HPM_P2
2021/09/06 00:00:14;;;;;;;3.35;1.65;;;;;;;11.43;69.15;101575.91;5106599;28;20098;-69
2021/09/06 00:02:41;;;;;;;3.60;1.95;;;;;;;11.39;69.12;101568.09;5106510;28;20368;-68
2021/09/06 00:05:09;;;;;;;3.30;1.90;;;;;;;11.34;69.17;101567.19;5106526;28;20052;-68
2021/09/06 00:07:35;;;;;;;4.18;1.98;;;;;;;11.31;69.31;101563.72;5106774;28;20042;-68
2021/09/06 00:10:19;;;;;;;4.60;1.73;;;;;;;11.32;69.36;101571.53;5106752;28;20027;-68
2021/09/06 00:12:44;;;;;;;2.40;1.50;;;;;;;11.30;69.50;101573.22;5106707;28;20053;-68
2021/09/06 00:15:10;;;;;;;4.75;1.73;;;;;;;11.29;69.62;101566.31;5106381;28;20048;-68
2021/09/06 00:17:35;;;;;;;4.68;1.80;;;;;;;11.27;69.42;101568.00;5106295;28;20095;-69
2021/09/06 00:20:01;;;;;;;4.35;1.90;;;;;;;11.24;69.61;101562.78;5105946;28;20044;-68
2021/09/06 00:22:26;;;;;;;4.00;1.60;;;;;;;11.19;69.66;101560.16;5106271;28;20054;-68
2021/09/06 00:24:51;;;;;;;4.15;1.65;;;;;;;11.03;69.98;101546.16;5106485;28;20020;-69
2021/09/06 00:27:17;;;;;;;3.08;1.85;;;;;;;11.08;70.31;101560.06;5106218;28;20020;-69
2021/09/06 00:29:42;;;;;;;5.03;1.45;;;;;;;11.04;70.29;101555.69;5105730;28;20051;-68
2021/09/06 00:32:07;;;;;;;3.88;1.60;;;;;;;10.97;70.41;101553.91;5105872;28;20032;-69
2021/09/06 00:34:33;;;;;;;6.78;2.42;;;;;;;10.94;70.92;101552.19;5106291;28;20038;-69
2021/09/06 00:36:58;;;;;;;6.90;2.55;;;;;;;10.96;71.01;101557.38;5106231;28;20383;-68
2021/09/06 00:39:23;;;;;;;4.38;1.92;;;;;;;10.95;71.15;101558.22;5105927;28;20059;-68
2021/09/06 00:41:49;;;;;;;3.72;1.90;;;;;;;10.99;71.18;101560.84;5105936;28;20023;-68
2021/09/06 00:44:14;;;;;;;4.25;1.80;;;;;;;11.01;71.53;101553.97;5105947;28;20023;-68
2021/09/06 00:46:45;;;;;;;3.65;2.42;;;;;;;11.04;71.54;101555.69;5106002;28;20016;-68
2021/09/06 00:49:10;;;;;;;3.70;1.83;;;;;;;11.09;71.77;101560.94;5087457;28;20027;-68
2021/09/06 00:51:35;;;;;;;3.95;2.20;;;;;;;11.12;71.98;101560.94;5087662;28;20111;-68
2021/09/06 00:54:01;;;;;;;3.92;2.40;;;;;;;11.16;72.08;101560.13;5105868;28;20020;-68
2021/09/06 00:56:26;;;;;;;3.53;1.85;;;;;;;11.23;72.21;101561.06;5105939;28;20032;-68
2021/09/06 00:58:52;;;;;;;6.35;2.42;;;;;;;11.28;72.42;101559.34;5105664;28;20088;-68
2021/09/06 01:01:17;;;;;;;4.47;2.40;;;;;;;11.29;72.44;101558.50;5105644;28;20020;-68
2021/09/06 01:03:42;;;;;;;3.78;2.55;;;;;;;11.36;72.52;101557.66;5105667;28;20029;-69
2021/09/06 01:06:08;;;;;;;4.70;1.95;;;;;;;11.44;72.53;101567.28;5105610;28;20395;-68
2021/09/06 01:08:34;;;;;;;3.83;1.80;;;;;;;11.49;72.45;101565.56;5105771;28;20024;-68
2021/09/06 01:11:00;;;;;;;5.93;2.20;;;;;;;11.52;72.49;101556.03;5105505;28;20038;-68
2021/09/06 01:13:25;;;;;;;3.90;1.80;;;;;;;11.58;72.24;101557.81;5105870;28;20221;-69
2021/09/06 01:15:50;;;;;;;3.47;1.83;;;;;;;11.61;72.38;101550.00;5105610;28;20020;-69
2021/09/06 01:18:16;;;;;;;4.15;2.20;;;;;;;11.62;72.17;101543.97;5105422;28;20028;-68
2021/09/06 01:20:41;;;;;;;5.32;2.25;;;;;;;11.63;72.18;101548.31;5105360;28;20044;-69
2021/09/06 01:23:09;;;;;;;4.05;2.58;;;;;;;11.62;72.19;101556.09;5105493;28;20032;-68
2021/09/06 01:25:35;;;;;;;5.35;2.33;;;;;;;11.59;72.18;101561.28;5105634;28;20031;-68
2021/09/06 01:28:00;;;;;;;3.25;1.90;;;;;;;11.51;72.15;101558.63;5105502;28;20071;-68
2021/09/06 01:30:26;;;;;;;6.00;2.33;;;;;;;11.45;72.33;101563.81;5105425;28;20016;-68
2021/09/06 01:32:51;;;;;;;4.38;2.50;;;;;;;11.33;72.60;101546.38;5105618;28;20020;-68
2021/09/06 01:35:17;;;;;;;4.38;2.20;;;;;;;11.31;72.66;101556.75;5105559;28;20467;-68
2021/09/06 01:37:42;;;;;;;3.85;2.58;;;;;;;11.28;72.92;101552.44;5105639;28;20059;-68
2021/09/06 01:40:08;;;;;;;3.63;2.28;;;;;;;11.27;73.52;101553.28;5105205;28;20024;-68
2021/09/06 01:42:34;;;;;;;4.22;2.40;;;;;;;11.22;73.84;101549.78;5107982;28;20024;-68
2021/09/06 01:45:02;;;;;;;4.70;2.70;;;;;;;11.22;74.17;101556.69;5109639;28;20043;-68
2021/09/06 01:47:28;;;;;;;5.97;2.42;;;;;;;11.22;74.69;101551.50;5109059;28;20070;-68
2021/09/06 01:49:53;;;;;;;5.35;2.50;;;;;;;11.18;74.85;101544.56;5109431;28;20042;-69
2021/09/06 01:52:19;;;;;;;4.30;2.60;;;;;;;11.17;75.13;101546.28;5109091;28;20020;-68
2021/09/06 01:54:45;;;;;;;4.57;2.78;;;;;;;11.14;75.59;101541.06;5109205;28;20034;-68
2021/09/06 01:57:10;;;;;;;4.22;2.30;;;;;;;11.14;75.92;101549.72;5109046;28;20028;-68
2021/09/06 01:59:36;;;;;;;6.40;2.65;;;;;;;11.14;75.77;101536.72;5108996;28;20031;-68
2021/09/06 02:02:01;;;;;;;3.95;2.45;;;;;;;11.12;76.04;101535.84;5108610;28;20026;-69
2021/09/06 02:04:26;;;;;;;5.15;2.63;;;;;;;11.12;76.11;101540.16;5109152;28;20028;-69
2021/09/06 02:06:52;;;;;;;3.92;2.20;;;;;;;11.10;76.05;101545.34;5108975;28;20493;-69
2021/09/06 02:09:17;;;;;;;5.75;3.30;;;;;;;11.09;75.98;101542.75;5109136;28;20448;-70
2021/09/06 02:11:43;;;;;;;5.07;2.90;;;;;;;11.09;76.24;101546.22;5108870;28;20095;-69
2021/09/06 02:14:09;;;;;;;4.25;2.58;;;;;;;11.08;76.32;101547.09;5090292;28;20119;-70
2021/09/06 02:16:35;;;;;;;6.95;2.60;;;;;;;11.06;76.25;101540.13;5108869;28;20028;-69
2021/09/06 02:19:00;;;;;;;7.38;3.20;;;;;;;11.00;76.37;101535.75;5108529;28;20020;-69
2021/09/06 02:21:25;;;;;;;11.55;3.20;;;;;;;11.01;76.38;101542.69;5108512;28;20082;-69
2021/09/06 02:23:51;;;;;;;4.30;2.53;;;;;;;10.99;76.54;101544.41;5108921;28;20023;-69
2021/09/06 02:26:16;;;;;;;4.70;2.47;;;;;;;10.99;76.62;101541.81;5108702;28;20035;-68
2021/09/06 02:28:41;;;;;;;7.20;3.13;;;;;;;10.95;76.69;101545.22;5108644;28;20065;-68
2021/09/06 02:31:07;;;;;;;5.50;2.58;;;;;;;10.93;76.69;101541.78;5108775;28;20051;-69
2021/09/06 02:33:33;;;;;;;6.03;3.35;;;;;;;10.88;76.70;101539.09;5108445;28;20024;-69
2021/09/06 02:35:58;;;;;;;5.75;2.80;;;;;;;10.86;76.73;101539.09;5108922;28;20020;-69
2021/09/06 02:38:24;;;;;;;9.75;3.30;;;;;;;10.81;76.85;101540.81;5108528;28;20380;-69
2021/09/06 02:40:49;;;;;;;3.30;2.28;;;;;;;10.78;77.03;101533.84;5108388;28;20083;-69
2021/09/06 02:43:14;;;;;;;4.57;2.80;;;;;;;10.75;77.31;101523.41;5108298;28;20032;-70
2021/09/06 02:45:40;;;;;;;5.45;2.53;;;;;;;10.82;77.29;101532.13;5108203;28;20023;-69
2021/09/06 02:48:05;;;;;;;4.75;2.10;;;;;;;10.81;77.41;101525.22;5108110;28;20111;-69
2021/09/06 02:50:31;;;;;;;5.10;2.92;;;;;;;10.87;77.43;101525.25;5090098;28;20017;-69
2021/09/06 02:52:56;;;;;;;4.43;2.70;;;;;;;10.87;77.65;101529.59;5107723;28;20035;-69
2021/09/06 02:55:22;;;;;;;5.80;2.90;;;;;;;10.89;77.79;101528.72;5108190;28;20035;-69
2021/09/06 02:57:48;;;;;;;6.40;2.72;;;;;;;10.89;77.56;101523.53;5107957;28;20030;-70
2021/09/06 03:00:14;;;;;;;4.65;2.88;;;;;;;10.89;77.47;101518.34;5107740;28;20080;-69
2021/09/06 03:02:39;;;;;;;4.82;2.78;;;;;;;10.81;77.31;101514.81;5108031;28;20020;-69
2021/09/06 03:05:06;;;;;;;5.18;2.80;;;;;;;10.81;77.82;101514.81;5107904;28;20436;-70
2021/09/06 03:07:32;;;;;;;5.47;2.70;;;;;;;10.84;77.93;101512.25;5107768;28;20464;-69
2021/09/06 03:09:58;;;;;;;6.65;2.75;;;;;;;10.84;77.85;101506.19;5107678;28;20032;-69
2021/09/06 03:12:23;;;;;;;4.57;2.47;;;;;;;10.82;77.92;101506.16;5107520;28;20024;-69
2021/09/06 03:14:48;;;;;;;4.18;2.70;;;;;;;10.82;77.72;101508.75;5107885;28;20060;-69
2021/09/06 03:17:14;;;;;;;3.80;2.60;;;;;;;10.79;77.66;101500.94;5107409;28;20085;-69
2021/09/06 03:19:39;;;;;;;4.65;2.53;;;;;;;10.76;77.65;101501.81;5107336;28;20046;-69
2021/09/06 03:22:05;;;;;;;6.05;2.63;;;;;;;10.79;77.85;101506.13;5107538;28;20020;-70
2021/09/06 03:24:30;;;;;;;4.93;3.15;;;;;;;10.75;78.15;101504.38;5107566;28;20108;-69
2021/09/06 03:26:55;;;;;;;5.18;3.40;;;;;;;10.74;78.08;101497.44;5089353;28;20023;-69
2021/09/06 03:29:21;;;;;;;4.60;3.08;;;;;;;10.75;78.05;101499.19;5107434;28;20464;-69
2021/09/06 03:31:46;;;;;;;5.88;3.20;;;;;;;10.68;77.97;101490.47;5107399;28;20030;-69
2021/09/06 03:34:11;;;;;;;7.43;2.90;;;;;;;10.69;78.05;101501.75;5088503;28;20032;-70
2021/09/06 03:36:37;;;;;;;4.90;2.75;;;;;;;10.60;78.06;101498.19;5107364;28;20161;-70
2021/09/06 03:39:02;;;;;;;6.00;2.90;;;;;;;10.59;77.94;101504.22;5107342;28;20084;-69
2021/09/06 03:41:30;;;;;;;4.53;2.65;;;;;;;10.57;77.98;101498.16;5107168;28;20031;-68
2021/09/06 03:43:55;;;;;;;5.07;2.53;;;;;;;10.54;78.17;101495.53;5107411;28;20122;-69
2021/09/06 03:46:21;;;;;;;4.40;2.72;;;;;;;10.54;78.16;101496.41;5107110;28;20024;-69
2021/09/06 03:48:46;;;;;;;5.72;2.58;;;;;;;10.57;78.26;101502.47;5088937;28;20020;-69
2021/09/06 03:51:11;;;;;;;7.32;2.95;;;;;;;10.63;77.95;101498.22;5107153;28;20050;-69
2021/09/06 03:53:37;;;;;;;4.82;2.47;;;;;;;10.58;78.02;101492.09;5107090;28;20051;-68
2021/09/06 03:56:03;;;;;;;4.15;2.38;;;;;;;10.56;78.02;101488.63;5107097;28;20028;-68
2021/09/06 03:58:28;;;;;;;3.70;2.30;;;;;;;10.53;77.92;101488.59;5106957;28;20040;-68
2021/09/06 04:00:53;;;;;;;5.60;2.33;;;;;;;10.49;78.20;101482.53;5106966;28;20054;-69
2021/09/06 04:03:19;;;;;;;6.20;2.40;;;;;;;10.56;78.11;101475.63;5106423;28;20053;-67
2021/09/06 04:05:44;;;;;;;5.88;2.95;;;;;;;10.61;77.68;101478.28;5106115;28;20402;-67
2021/09/06 04:08:09;;;;;;;4.15;2.38;;;;;;;10.59;77.43;101488.66;5106745;28;20031;-67
2021/09/06 04:10:35;;;;;;;5.78;2.80;;;;;;;10.55;77.47;101481.69;5106768;28;20020;-76
2021/09/06 04:13:00;;;;;;;4.93;2.60;;;;;;;10.54;77.67;101485.16;5106650;28;20120;-67
2021/09/06 04:15:26;;;;;;;5.43;2.70;;;;;;;10.57;77.52;101479.09;5106538;28;20087;-68
2021/09/06 04:17:52;;;;;;;9.50;3.13;;;;;;;10.60;77.60;101484.34;5106565;28;20030;-67
2021/09/06 04:20:17;;;;;;;4.55;2.33;;;;;;;10.57;77.53;101487.78;5105815;28;20091;-68
2021/09/06 04:22:42;;;;;;;6.13;2.58;;;;;;;10.62;77.56;101477.44;5106289;28;20058;-67
2021/09/06 04:25:09;;;;;;;4.88;2.60;;;;;;;10.62;77.48;101478.28;5088064;28;20016;-66
2021/09/06 04:27:34;;;;;;;5.82;2.67;;;;;;;10.59;77.51;101488.66;5106599;28;20471;-64
2021/09/06 04:30:00;;;;;;;3.30;2.22;;;;;;;10.59;77.44;101491.25;5106491;28;20024;-65
2021/09/06 04:32:25;;;;;;;7.50;2.20;;;;;;;10.60;77.88;101480.03;5105932;28;20479;-74
2021/09/06 04:34:50;;;;;;;4.47;2.47;;;;;;;10.74;77.73;101487.03;5106474;28;20383;-66
2021/09/06 04:37:16;;;;;;;4.68;2.80;;;;;;;10.85;77.98;101487.13;5106144;28;20016;-67
2021/09/06 04:39:41;;;;;;;4.90;2.50;;;;;;;11.01;77.79;101489.00;5106082;28;20056;-68
2021/09/06 04:42:06;;;;;;;4.07;2.28;;;;;;;11.10;77.41;101485.56;5105649;28;20024;-67
2021/09/06 04:44:32;;;;;;;4.95;2.40;;;;;;;11.20;77.50;101477.88;5105800;28;20046;-67
2021/09/06 04:46:58;;;;;;;4.53;2.67;;;;;;;11.32;77.69;101474.44;5105757;28;20020;-67
2021/09/06 04:49:24;;;;;;;3.50;2.67;;;;;;;11.57;77.96;101477.16;5105707;28;20039;-67
2021/09/06 04:51:49;;;;;;;5.20;2.13;;;;;;;11.84;77.53;101476.41;5105831;28;20040;-67
2021/09/06 04:54:16;;;;;;;4.18;2.22;;;;;;;12.03;76.93;101474.75;5106127;28;20049;-68
2021/09/06 04:56:42;;;;;;;4.03;2.55;;;;;;;12.18;76.44;101477.41;5087756;28;20027;-67
2021/09/06 04:59:07;;;;;;;4.93;2.60;;;;;;;12.23;76.23;101475.69;5106155;28;20020;-67
2021/09/06 05:01:33;;;;;;;4.18;2.80;;;;;;;12.21;74.67;101474.81;5105899;28;20028;-67
2021/09/06 05:03:58;;;;;;;4.82;2.20;;;;;;;12.02;74.11;101477.34;5105920;28;20030;-68
2021/09/06 05:06:26;;;;;;;6.45;2.67;;;;;;;11.88;73.80;101475.59;5105767;28;20054;-67
2021/09/06 05:08:52;;;;;;;4.55;2.55;;;;;;;11.70;74.16;101468.56;5105766;28;20023;-67
2021/09/06 05:11:17;;;;;;;4.00;2.30;;;;;;;11.62;74.30;101465.94;5105684;28;20060;-67
2021/09/06 05:13:42;;;;;;;5.82;2.80;;;;;;;11.61;74.27;101476.34;5105713;28;20034;-67
2021/09/06 05:16:08;;;;;;;4.05;2.63;;;;;;;11.52;74.35;101477.16;5105499;28;20478;-67
2021/09/06 05:18:33;;;;;;;3.42;2.20;;;;;;;11.43;74.19;101480.59;5105243;28;20031;-67
2021/09/06 05:21:00;;;;;;;6.80;2.67;;;;;;;11.27;74.02;101471.81;5105387;28;20165;-67
2021/09/06 05:23:25;;;;;;;9.88;3.05;;;;;;;11.12;74.82;101483.88;5105487;28;20020;-68
2021/09/06 05:25:50;;;;;;;6.28;2.78;;;;;;;11.12;74.98;101493.38;5105602;28;20035;-67
2021/09/06 05:28:16;;;;;;;8.10;2.70;;;;;;;11.08;74.88;101489.03;5105488;28;20042;-67
2021/09/06 05:30:41;;;;;;;7.38;2.35;;;;;;;10.99;74.98;101487.25;5105380;28;20020;-67
2021/09/06 05:33:06;;;;;;;3.65;2.25;;;;;;;11.00;75.27;101495.06;5105281;28;20059;-67
2021/09/06 05:35:32;;;;;;;4.78;2.80;;;;;;;11.00;75.74;101495.06;5105253;28;20023;-68
2021/09/06 05:37:57;;;;;;;5.30;2.55;;;;;;;11.12;75.88;101490.78;5105370;28;20116;-67
2021/09/06 05:40:23;;;;;;;4.30;2.58;;;;;;;11.17;75.87;101486.50;5105280;28;20017;-67
2021/09/06 05:42:48;;;;;;;5.10;2.42;;;;;;;11.25;75.56;101489.13;5105288;28;20341;-66
2021/09/06 05:45:13;;;;;;;5.85;2.60;;;;;;;11.21;75.65;101483.06;5105568;28;20028;-66
2021/09/06 05:47:39;;;;;;;5.03;2.10;;;;;;;11.22;75.74;101470.91;5105212;28;20024;-67
2021/09/06 05:50:05;;;;;;;4.30;2.25;;;;;;;11.43;75.99;101485.78;5105631;28;20024;-66
2021/09/06 05:52:30;;;;;;;6.88;2.20;;;;;;;11.93;76.92;101478.19;5105125;28;20028;-66
2021/09/06 05:54:56;;;;;;;4.00;2.42;;;;;;;12.39;75.91;101487.00;5087217;28;20019;-66
2021/09/06 05:57:23;;;;;;;4.55;2.58;;;;;;;12.60;74.60;101491.34;5105499;28;20028;-67
2021/09/06 05:59:48;;;;;;;3.35;2.03;;;;;;;12.69;74.09;101485.28;5105485;28;20028;-66
2021/09/06 06:02:14;;;;;;;3.75;2.22;;;;;;;12.94;74.00;101474.00;5105112;28;20087;-67
2021/09/06 06:04:39;;;;;;;8.23;2.00;;;;;;;13.41;73.99;101474.75;5105046;28;20031;-67
2021/09/06 06:07:04;;;;;;;8.60;2.47;;;;;;;13.93;72.00;101471.97;5086979;28;20020;-66
2021/09/06 06:09:30;;;;;;;6.78;2.00;;;;;;;14.12;70.92;101478.81;5105048;28;20019;-66
2021/09/06 06:11:55;;;;;;;7.05;2.67;;;;;;;14.21;69.08;101477.03;5105128;28;20035;-65
2021/09/06 06:14:20;;;;;;;4.43;2.08;;;;;;;14.10;69.03;101474.47;5105293;28;20080;-66
2021/09/06 06:16:46;;;;;;;3.80;1.92;;;;;;;13.99;69.00;101483.22;5105273;28;20024;-67
2021/09/06 06:19:11;;;;;;;4.40;2.20;;;;;;;13.88;68.83;101474.63;5104784;28;20020;-66
2021/09/06 06:21:37;;;;;;;8.02;2.30;;;;;;;13.71;68.47;101472.06;5104832;28;20095;-67
2021/09/06 06:24:03;;;;;;;8.75;2.63;;;;;;;13.52;68.32;101472.13;5105276;28;20046;-67
2021/09/06 06:26:28;;;;;;;5.07;2.65;;;;;;;13.25;68.34;101469.59;5105008;28;20425;-67
2021/09/06 06:28:54;;;;;;;4.10;2.45;;;;;;;12.95;68.98;101465.28;5108165;28;20023;-66
2021/09/06 06:31:19;;;;;;;5.78;2.70;;;;;;;12.76;69.63;101470.53;5073618;28;20020;-67
2021/09/06 06:33:45;;;;;;;7.05;2.15;;;;;;;12.61;70.14;101464.44;5108486;28;20020;-67
2021/09/06 06:36:11;;;;;;;5.38;2.08;;;;;;;12.48;70.81;101460.09;5108736;28;20020;-66
2021/09/06 06:38:36;;;;;;;4.45;2.47;;;;;;;12.37;71.04;101455.75;5108557;28;20016;-67
2021/09/06 06:41:03;;;;;;;6.70;2.42;;;;;;;12.37;71.52;101458.34;5108396;28;20020;-66
2021/09/06 06:43:29;;;;;;;5.07;2.30;;;;;;;12.29;71.88;101465.28;5108264;28;20422;-66
2021/09/06 06:45:55;;;;;;;4.97;2.22;;;;;;;12.29;71.80;101467.00;5108540;28;20020;-65
2021/09/06 06:48:20;;;;;;;9.88;2.30;;;;;;;12.19;72.34;101453.97;5108147;28;20384;-66
2021/09/06 06:50:46;;;;;;;7.30;2.90;;;;;;;12.36;72.28;101472.22;5090086;28;20031;-66
2021/09/06 06:53:11;;;;;;;6.55;2.33;;;;;;;12.42;72.31;101471.38;5108076;28;20026;-66
2021/09/06 06:55:37;;;;;;;4.95;2.70;;;;;;;12.50;72.35;101472.25;5108160;28;20020;-67
2021/09/06 06:58:02;;;;;;;4.85;2.13;;;;;;;12.50;72.56;101461.84;5108215;28;20022;-67
2021/09/06 07:00:28;;;;;;;4.80;2.35;;;;;;;12.75;72.38;101482.69;5108124;28;20169;-67
2021/09/06 07:02:53;;;;;;;7.10;2.50;;;;;;;12.85;72.24;101480.94;5107566;28;20466;-67
2021/09/06 07:05:18;;;;;;;5.25;2.15;;;;;;;12.98;72.23;101480.94;5107674;28;20031;-67
2021/09/06 07:07:44;;;;;;;4.60;2.30;;;;;;;13.16;71.73;101493.09;5107712;28;20016;-67
2021/09/06 07:10:10;;;;;;;3.65;2.15;;;;;;;13.29;71.40;101486.06;5107713;28;20107;-67
2021/09/06 07:12:37;;;;;;;5.00;2.45;;;;;;;13.39;70.99;101481.72;5107489;28;20027;-67
2021/09/06 07:15:04;;;;;;;5.80;2.33;;;;;;;13.43;71.24;101478.25;5089580;28;20028;-67
2021/09/06 07:17:30;;;;;;;6.50;2.30;;;;;;;13.59;70.66;101478.22;5107619;28;20019;-67
2021/09/06 07:19:55;;;;;;;3.28;1.88;;;;;;;13.69;70.75;101479.91;5107641;28;20129;-66
2021/09/06 07:22:22;;;;;;;5.38;2.20;;;;;;;13.80;70.52;101477.22;5107529;28;20039;-66
2021/09/06 07:24:47;;;;;;;5.75;2.72;;;;;;;13.86;70.62;101479.84;5107788;28;20359;-66
2021/09/06 07:27:12;;;;;;;6.40;2.58;;;;;;;13.98;70.29;101478.00;5107712;28;20022;-67
2021/09/06 07:29:38;;;;;;;14.40;2.67;;;;;;;14.43;70.18;101482.09;5107570;28;20042;-66
2021/09/06 07:32:03;;;;;;;3.55;1.73;;;;;;;14.99;69.65;101479.03;5107474;28;20030;-66
2021/09/06 07:34:34;;;;;;;5.93;2.10;;;;;;;15.50;69.12;101482.88;5107207;28;20024;-66
2021/09/06 07:37:00;;;;;;;3.83;1.90;;;;;;;15.89;68.29;101481.53;5107444;28;20028;-66
2021/09/06 07:39:25;;;;;;;7.75;2.28;;;;;;;16.19;67.47;101485.50;5107237;28;20035;-67
2021/09/06 07:41:51;;;;;;;4.38;1.63;;;;;;;16.52;66.76;101485.00;5106877;28;20020;-67
2021/09/06 07:44:16;;;;;;;5.10;1.98;;;;;;;16.85;66.27;101489.72;5088845;28;20028;-67
2021/09/06 07:46:41;;;;;;;3.53;1.55;;;;;;;17.24;64.73;101483.78;5106865;28;20088;-67
2021/09/06 07:49:07;;;;;;;5.55;2.45;;;;;;;17.43;63.77;101488.66;5106829;28;20016;-67
2021/09/06 07:51:32;;;;;;;4.97;1.70;;;;;;;17.60;63.32;101488.34;5107146;28;20423;-67
2021/09/06 07:53:57;;;;;;;4.45;1.55;;;;;;;17.71;62.96;101493.34;5107256;28;20102;-67
2021/09/06 07:56:23;;;;;;;5.32;1.67;;;;;;;17.82;62.76;101491.38;5107072;28;20016;-67
2021/09/06 07:58:48;;;;;;;3.35;1.85;;;;;;;17.87;61.99;101493.91;5106792;28;20036;-68
2021/09/06 08:01:14;;;;;;;6.18;1.92;;;;;;;17.79;61.60;101496.69;5106711;28;20024;-67
2021/09/06 08:03:39;;;;;;;3.95;1.95;;;;;;;17.74;60.68;101497.66;5105045;28;20024;-67
2021/09/06 08:06:04;;;;;;;4.22;1.50;;;;;;;17.74;61.15;101502.94;5105257;28;20019;-67
2021/09/06 08:08:30;;;;;;;3.67;1.92;;;;;;;17.78;60.81;101504.59;5105361;28;20034;-67
2021/09/06 08:10:55;;;;;;;4.95;2.00;;;;;;;17.89;60.96;101504.38;5105461;28;20069;-66
2021/09/06 08:13:20;;;;;;;7.07;1.48;;;;;;;18.30;60.75;101501.72;5104991;28;20507;-69
2021/09/06 08:15:46;;;;;;;6.18;1.92;;;;;;;18.88;59.79;101506.44;5105629;28;20019;-67
2021/09/06 08:18:11;;;;;;;4.20;1.88;;;;;;;19.48;58.08;101503.13;5105501;28;20069;-66
2021/09/06 08:20:38;;;;;;;6.60;2.30;;;;;;;19.65;57.00;101505.28;5105511;28;20395;-67
2021/09/06 08:23:04;;;;;;;3.88;1.60;;;;;;;19.68;56.17;101510.47;5105701;28;20110;-67
2021/09/06 08:25:30;;;;;;;3.78;1.98;;;;;;;19.71;55.94;101513.91;5105800;28;20024;-67
2021/09/06 08:27:55;;;;;;;6.20;1.48;;;;;;;20.03;55.61;101514.75;5105407;28;20027;-66
2021/09/06 08:30:21;;;;;;;3.40;1.73;;;;;;;20.28;54.65;101509.59;5105476;28;20020;-67
2021/09/06 08:32:46;;;;;;;3.25;1.50;;;;;;;20.36;54.27;101511.09;5105078;28;20027;-67
2021/09/06 08:35:12;;;;;;;4.07;1.80;;;;;;;20.40;54.11;101503.03;5105477;28;20019;-66
2021/09/06 08:37:38;;;;;;;3.78;1.65;;;;;;;20.50;53.42;101508.00;5105523;28;20012;-66
2021/09/06 08:40:05;;;;;;;7.85;2.33;;;;;;;20.44;52.32;101511.72;5105425;28;20058;-68
2021/09/06 08:42:30;;;;;;;3.75;2.00;;;;;;;20.03;52.72;101506.84;5105063;28;20053;-67
2021/09/06 08:44:56;;;;;;;4.68;1.73;;;;;;;19.83;53.58;101503.00;5086786;28;20491;-67
2021/09/06 08:47:22;;;;;;;3.00;1.25;;;;;;;19.55;53.59;101506.47;5104468;28;20051;-67
2021/09/06 08:49:49;;;;;;;3.67;2.10;;;;;;;19.30;54.90;101515.91;5103722;28;20028;-67
2021/09/06 08:52:14;;;;;;;7.13;1.80;;;;;;;19.32;55.29;101506.22;5104124;28;20046;-67
2021/09/06 08:54:41;;;;;;;6.63;2.03;;;;;;;19.46;55.38;101506.72;5104298;28;20020;-67
2021/09/06 08:57:07;;;;;;;8.13;1.88;;;;;;;19.44;54.88;101519.94;5104262;28;20028;-67
2021/09/06 08:59:32;;;;;;;3.65;1.55;;;;;;;19.20;55.61;101514.44;5103933;28;20444;-68
2021/09/06 09:01:58;;;;;;;3.67;1.50;;;;;;;19.03;55.91;101510.47;5104049;28;20048;-67
2021/09/06 09:04:28;;;;;;;5.07;1.38;;;;;;;19.02;56.06;101505.22;5103796;28;20020;-67
2021/09/06 09:06:57;;;;;;;2.90;1.30;;;;;;;18.99;55.30;101506.19;5103913;28;20532;-67
2021/09/06 09:09:29;;;;;;;3.67;1.42;;;;;;;18.85;55.01;101506.53;5104017;28;20031;-67
2021/09/06 09:12:02;;;;;;;2.10;1.17;;;;;;;18.55;56.28;101493.25;5104288;28;20024;-66
2021/09/06 09:14:27;;;;;;;2.72;1.10;;;;;;;18.58;55.33;101512.44;5104095;28;20035;-67
2021/09/06 09:16:58;;;;;;;4.53;1.20;;;;;;;18.45;55.11;101511.03;5104038;28;20024;-67
2021/09/06 09:19:24;;;;;;;2.15;1.10;;;;;;;18.28;55.45;101514.03;5085438;28;20055;-67
2021/09/06 09:21:59;;;;;;;3.72;1.23;;;;;;;18.19;55.58;101507.25;5104071;28;20032;-67
2021/09/06 09:24:24;;;;;;;2.65;0.93;;;;;;;18.06;55.60;101515.38;5104269;28;20032;-67
2021/09/06 09:26:59;;;;;;;2.70;1.10;;;;;;;18.04;55.25;101511.03;5085881;28;20038;-67
2021/09/06 09:29:25;;;;;;;3.67;1.50;;;;;;;17.95;54.23;101507.75;5103946;28;20028;-66
2021/09/06 09:31:53;;;;;;;2.67;0.90;;;;;;;17.91;53.96;101510.44;5103801;28;20035;-66
2021/09/06 09:34:19;;;;;;;1.77;0.80;;;;;;;17.88;54.15;101502.63;5103626;28;20431;-66
2021/09/06 09:36:44;;;;;;;2.97;1.15;;;;;;;17.89;54.40;101507.00;5104004;28;20032;-66
2021/09/06 09:39:14;;;;;;;2.38;1.08;;;;;;;18.00;54.72;101510.25;5103866;28;20024;-67
2021/09/06 09:41:42;;;;;;;2.70;0.90;;;;;;;18.11;53.94;101511.78;5103922;28;20024;-67
2021/09/06 09:44:08;;;;;;;2.03;1.10;;;;;;;18.20;54.16;101509.84;5104015;28;20107;-66
2021/09/06 09:46:34;;;;;;;2.13;1.27;;;;;;;18.28;52.78;101501.78;5104652;28;20035;-67
2021/09/06 09:49:11;;;;;;;1.77;1.05;;;;;;;18.41;52.52;101509.38;5086331;28;20016;-67
2021/09/06 09:51:36;;;;;;;4.75;1.27;;;;;;;18.55;52.79;101507.28;5104843;28;20018;-67
2021/09/06 09:54:03;;;;;;;2.97;1.20;;;;;;;18.69;52.02;101511.34;5104994;28;20088;-67
2021/09/06 09:56:30;;;;;;;3.65;1.17;;;;;;;18.74;51.63;101505.97;5104755;28;20024;-67
2021/09/06 09:58:57;;;;;;;5.15;1.70;;;;;;;18.82;51.91;101517.13;5085677;28;20053;-67
2021/09/06 10:01:24;;;;;;;2.47;1.17;;;;;;;18.97;52.43;101510.63;5103833;28;20028;-67
2021/09/06 10:03:49;;;;;;;3.53;1.33;;;;;;;19.15;51.50;101509.28;5088837;28;20112;-67
2021/09/06 10:06:15;;;;;;;2.60;1.10;;;;;;;19.36;49.59;101499.06;5107931;28;20464;-67
2021/09/06 10:08:41;;;;;;;2.17;0.80;;;;;;;19.49;48.24;101496.94;5108535;28;20079;-67
2021/09/06 10:11:14;;;;;;;3.90;1.00;;;;;;;19.61;47.61;101497.50;5108197;28;20020;-67
2021/09/06 10:13:40;;;;;;;3.20;1.40;;;;;;;19.60;47.12;101491.38;5108201;28;20472;-68
2021/09/06 10:16:06;;;;;;;2.83;1.17;;;;;;;19.59;47.41;101494.06;5108747;28;20024;-67
2021/09/06 10:18:37;;;;;;;4.15;1.30;;;;;;;19.37;47.87;101485.00;5108440;28;20020;-67
2021/09/06 10:21:10;;;;;;;2.70;1.20;;;;;;;19.15;49.22;101492.66;5090120;28;20127;-67
2021/09/06 10:23:43;;;;;;;2.47;1.20;;;;;;;19.08;49.70;101494.53;5108333;28;20141;-66
2021/09/06 10:26:10;;;;;;;1.95;1.17;;;;;;;19.10;50.00;101490.13;5108181;28;20024;-67
2021/09/06 10:28:35;;;;;;;1.95;1.00;;;;;;;19.02;47.63;101485.06;5108212;28;20019;-67
2021/09/06 10:31:02;;;;;;;2.47;1.10;;;;;;;18.80;47.16;101479.50;5108020;28;20023;-66
2021/09/06 10:33:31;;;;;;;3.38;1.10;;;;;;;18.74;45.91;101485.75;5107996;28;20197;-67
2021/09/06 10:36:08;;;;;;;2.17;1.00;;;;;;;18.74;46.32;101477.88;5089982;28;20384;-67
2021/09/06 10:38:41;;;;;;;3.22;1.30;;;;;;;18.76;44.94;101469.94;5108062;28;20046;-67
2021/09/06 10:41:13;;;;;;;2.35;1.23;;;;;;;18.78;46.43;101471.66;5107977;28;20032;-66
2021/09/06 10:43:49;;;;;;;3.03;1.10;;;;;;;18.78;47.23;101461.13;5108082;28;20027;-67
2021/09/06 10:46:16;;;;;;;2.47;1.02;;;;;;;18.88;45.02;101460.88;5108347;28;20355;-67
2021/09/06 10:48:42;;;;;;;2.50;0.95;;;;;;;18.80;46.17;101468.97;5107640;28;20028;-67
2021/09/06 10:51:09;;;;;;;1.58;0.80;;;;;;;18.80;46.42;101469.81;5108228;28;20016;-67
2021/09/06 10:53:35;;;;;;;3.22;1.00;;;;;;;18.72;47.46;101460.41;5107962;28;20036;-67
2021/09/06 10:56:01;;;;;;;2.80;1.10;;;;;;;18.65;47.64;101459.69;5108121;28;20048;-67
2021/09/06 10:58:28;;;;;;;2.10;1.10;;;;;;;18.67;46.85;101452.66;5108189;28;20024;-67
2021/09/06 11:00:57;;;;;;;2.63;1.55;;;;;;;18.67;46.95;101442.13;5107880;28;20032;-67
2021/09/06 11:03:24;;;;;;;3.22;1.40;;;;;;;18.79;45.13;101449.69;5107845;28;20476;-66
2021/09/06 11:05:58;;;;;;;3.05;1.10;;;;;;;18.83;45.88;101446.06;5107996;28;20036;-67
2021/09/06 11:08:30;;;;;;;2.10;0.80;;;;;;;18.97;44.63;101431.69;5107755;28;20024;-67
2021/09/06 11:10:58;;;;;;;1.45;0.90;;;;;;;19.18;41.99;101446.06;5107897;28;20023;-67
2021/09/06 11:13:38;;;;;;;1.33;0.80;;;;;;;19.36;41.22;101453.47;5107481;28;20044;-67
2021/09/06 11:16:06;;;;;;;2.75;1.00;;;;;;;19.41;42.35;101446.31;5107072;28;20024;-67
2021/09/06 11:18:35;;;;;;;2.40;1.02;;;;;;;19.33;44.13;101451.75;5106727;28;20031;-68